1949 Tropical Low NOT_NAMED (1949077S15123)


IBTrACS version v04r00. Visit IBTrACS website for data access.
Please direct all questions to the IBTrACS Q and A forum

Storm track - Intensity - Wind Radii - Intensity Data - Source Data - All data

Summary Information

Storm ID 1949077S15123
Start Mar 17 23Z
Landfall Mar 26 09Z
Max Intensity 970 mb (Mar 22 01Z)
End Mar 26 13Z
ATCF IDs ,SH201949
Track status Best track data.

Storm track plot

Map of storm track

Intensity plots

Map of storm track

Radial wind information

No radial wind information for this storm


Position and Intensity Table

BASIN ISO_TIME_________ NATURE LAT LON WMO PRES BOM PRES
degrees north degrees east mb mb
SI 1949-03-17 23:00:00 NR -15.20 122.90
SI 1949-03-18 00:00:00 TS -15.20 122.82
SI 01:00:00 TS -15.13 122.67 1001 1001
SI 03:00:00 TS -15.13 122.52
SI 06:00:00 TS -15.13 122.32
SI 09:00:00 TS -15.10 122.12
SI 11:00:00 TS -15.10 122.02
SI 12:00:00 TS -15.11 121.97
SI 15:00:00 TS -15.14 121.80
SI 18:00:00 TS -15.18 121.63
SI 21:00:00 TS -15.19 121.49
SI 23:00:00 TS -15.19 121.40
SI 1949-03-19 00:00:00 TS -15.16 121.29
SI 01:00:00 TS -15.14 121.17 1000 1000
SI 03:00:00 TS -15.14 121.02
SI 06:00:00 TS -15.16 120.83
SI 09:00:00 TS -15.18 120.72
SI 11:00:00 TS -15.19 120.65
SI 12:00:00 TS -15.20 120.62
SI 15:00:00 TS -15.24 120.52
SI 18:00:00 TS -15.29 120.42
SI 21:00:00 TS -15.32 120.30
SI 23:00:00 TS -15.34 120.21
SI 1949-03-20 00:00:00 TS -15.36 120.16
SI 01:00:00 TS -15.38 120.10 995 995
SI 03:00:00 TS -15.44 119.98
SI 06:00:00 TS -15.53 119.77
SI 09:00:00 TS -15.61 119.53
SI 11:00:00 TS -15.66 119.36
SI 12:00:00 TS -15.68 119.28
SI 15:00:00 TS -15.75 119.07
SI 18:00:00 TS -15.82 118.85
SI 21:00:00 TS -15.90 118.61
SI 23:00:00 TS -15.95 118.45
SI 1949-03-21 00:00:00 TS -15.98 118.37
SI 01:00:00 TS -16.01 118.29 980 980
SI 03:00:00 TS -16.07 118.13
SI 06:00:00 TS -16.18 117.90
SI 09:00:00 TS -16.28 117.66
SI 11:00:00 TS -16.35 117.50
SI 12:00:00 TS -16.39 117.42
SI 15:00:00 TS -16.49 117.18
SI 18:00:00 TS -16.60 116.94
SI 21:00:00 TS -16.71 116.69
SI 23:00:00 TS -16.78 116.53
SI 1949-03-22 00:00:00 TS -16.82 116.45
SI 01:00:00 TS -16.85 116.38 970 970
SI 03:00:00 TS -16.92 116.25
SI 06:00:00 TS -17.03 116.04
SI 09:00:00 TS -17.14 115.81
SI 11:00:00 TS -17.23 115.66
SI 12:00:00 TS -17.28 115.58
SI 15:00:00 TS -17.47 115.36
SI 18:00:00 TS -17.69 115.14
SI 21:00:00 TS -17.91 114.90
SI 23:00:00 TS -18.07 114.76
SI 1949-03-23 00:00:00 TS -18.14 114.71
SI 01:00:00 TS -18.22 114.67 970 970
SI 03:00:00 TS -18.37 114.61
SI 06:00:00 TS -18.62 114.56
SI 09:00:00 TS -18.89 114.53
SI 11:00:00 TS -19.07 114.50
SI 12:00:00 TS -19.17 114.48
SI 15:00:00 TS -19.48 114.37
SI 18:00:00 TS -19.79 114.25
SI 21:00:00 TS -20.09 114.14
SI 23:00:00 TS -20.29 114.06
SI 1949-03-24 00:00:00 TS -20.38 114.02
SI 01:00:00 TS -20.48 113.97 985 985
SI 03:00:00 TS -20.67 113.87
SI 06:00:00 TS -20.95 113.70
SI 09:00:00 TS -21.22 113.52
SI 11:00:00 TS -21.39 113.38
SI 12:00:00 TS -21.44 113.26
SI 15:00:00 TS -21.67 112.98
SI 18:00:00 TS -21.86 112.69
SI 21:00:00 TS -22.02 112.49
SI 23:00:00 TS -22.16 112.45
SI 1949-03-25 00:00:00 TS -22.20 112.50
SI 01:00:00 TS -22.30 112.49 990 990
SI 03:00:00 TS -22.51 112.46
SI 06:00:00 TS -22.84 112.42
SI 09:00:00 TS -23.17 112.40
SI 12:00:00 TS -23.51 112.40
SI 15:00:00 TS -23.85 112.44
SI 18:00:00 TS -24.19 112.50
SI 21:00:00 TS -24.54 112.61
SI 1949-03-26 00:00:00 TS -24.89 112.77
SI 01:00:00 TS -25.00 112.82 995 995
SI 03:00:00 TS -25.22 112.94 995
SI 06:00:00 TS -25.58 113.19 995
SI 07:00:00 TS -25.72 113.30 995 995
SI 09:00:00 TS -26.02 113.56
SI 12:00:00 TS -26.51 114.02
SI 13:00:00 NR -26.70 114.20

Source Information

Agency Information
USA bsh201949.txt
TOKYO
CMA
HKO
NEWDELHI
REUNION
BOM IDCKMSTM0S.csv:Line=1539:unnamed
NADI
WELLINGTON
DS824 s_hem.dat:516:20S
TD9636 cons_worldwide_trop_cyclone_18710101-19891231-006:Line=3461
TD9635
NEUMANN
MLC

All available IBTrACS Data

SEASON BASIN SUBBASIN ISO_TIME_________ NATURE LAT LON WMO PRES WMO AGENCY DIST2LAND LANDFALL IFLAG USA AGENCY USA ATCF_ID USA LAT USA LON USA SSHS BOM LAT BOM LON BOM PRES BOM PRES_METHOD DS824 LAT DS824 LON DS824 STAGE TD9636 LAT TD9636 LON TD9636 STAGE STORM SPEED STORM DIR
Year degrees north degrees east mb km km degrees north degrees east 1 degrees north degrees east mb degrees north degrees east degrees north degrees east kts degrees
1949 SI WA 1949-03-17 23:00:00 NR -15.20 122.90 140 140 __________O___ -1 -15.20 122.90 2 4 266
1949 SI WA 1949-03-18 00:00:00 TS -15.20 122.82 145 145 O________OP___ jtwc_sh SH201949 -15.20 122.80 -1 -15.20 122.80 TC -15.21 122.85 2 7 288
1949 SI WA 01:00:00 TS -15.13 122.67 1001 bom 158 158 P_____O__PP___ SH201949 -15.22 122.74 -1 -14.50 122.00 1001 -15.22 122.74 TC -15.22 122.80 2 6 285
1949 SI WA 03:00:00 TS -15.13 122.52 162 162 P_____P__PP___ SH201949 -15.26 122.64 -1 -14.50 121.82 -15.26 122.64 TC -15.23 122.70 2 4 270
1949 SI WA 06:00:00 TS -15.13 122.32 169 169 O_____P__OP___ jtwc_sh SH201949 -15.30 122.50 -1 -14.51 121.56 -15.30 122.50 TC -15.26 122.54 2 4 274
1949 SI WA 09:00:00 TS -15.10 122.12 178 178 P_____P__PP___ SH201949 -15.30 122.40 -1 -14.52 121.30 -15.30 122.40 TC -15.28 122.40 2 3 275
1949 SI WA 11:00:00 TS -15.10 122.02 183 183 P_____P__PO___ SH201949 -15.30 122.34 -1 -14.52 121.13 -15.30 122.34 TC -15.30 122.30 2 3 267
1949 SI WA 12:00:00 TS -15.11 121.97 183 183 O_____P__OP___ jtwc_sh SH201949 -15.30 122.30 -1 -14.53 121.04 -15.30 122.30 TC -15.31 122.25 2 3 260
1949 SI WA 15:00:00 TS -15.14 121.80 196 187 P_____P__PP___ SH201949 -15.35 122.15 -1 -14.54 120.79 -15.35 122.15 TC -15.33 122.11 2 3 258
1949 SI WA 18:00:00 TS -15.18 121.63 201 201 O_____P__OP___ jtwc_sh SH201949 -15.40 122.00 -1 -14.55 120.54 -15.40 122.00 TC -15.36 121.99 2 3 261
1949 SI WA 21:00:00 TS -15.19 121.49 208 208 P_____P__PP___ SH201949 -15.40 121.89 -1 -14.57 120.30 -15.40 121.89 TC -15.38 121.87 2 3 266
1949 SI WA 23:00:00 TS -15.19 121.40 216 216 P_____P__PO___ SH201949 -15.40 121.83 -1 -14.58 120.15 -15.40 121.83 TC -15.40 121.80 7 4 277
1949 SI WA 1949-03-19 00:00:00 TS -15.16 121.29 224 224 O_____P__OP___ jtwc_sh SH201949 -15.40 121.80 -1 -14.59 120.07 -15.40 121.80 TC -15.41 121.77 7 7 283
1949 SI WA 01:00:00 TS -15.14 121.17 1000 bom 239 239 P_____O__PP___ SH201949 -15.41 121.76 -1 -14.60 120.00 1000 -15.41 121.76 TC -15.42 121.74 7 5 275
1949 SI WA 03:00:00 TS -15.14 121.02 255 255 P_____P__PP___ SH201949 -15.45 121.69 -1 -14.62 119.86 -15.45 121.69 TC -15.43 121.68 7 4 268
1949 SI WA 06:00:00 TS -15.16 120.83 263 263 O_____P__OP___ jtwc_sh SH201949 -15.50 121.60 -1 -14.65 119.65 -15.50 121.60 TC -15.46 121.60 7 3 263
1949 SI WA 09:00:00 TS -15.18 120.72 270 270 P_____P__PP___ SH201949 -15.50 121.54 -1 -14.69 119.45 -15.50 121.54 TC -15.48 121.54 7 2 259
1949 SI WA 11:00:00 TS -15.19 120.65 278 278 P_____P__PO___ SH201949 -15.50 121.51 -1 -14.72 119.32 -15.50 121.51 TC -15.50 121.50 7 2 257
1949 SI WA 12:00:00 TS -15.20 120.62 278 278 O_____P__OP___ jtwc_sh SH201949 -15.50 121.50 -1 -14.73 119.26 -15.50 121.50 TC -15.51 121.49 7 2 248
1949 SI WA 15:00:00 TS -15.24 120.52 286 278 P_____P__PP___ SH201949 -15.55 121.46 -1 -14.78 119.08 -15.55 121.46 TC -15.52 121.47 7 2 245
1949 SI WA 18:00:00 TS -15.29 120.42 285 285 O_____P__OP___ jtwc_sh SH201949 -15.60 121.40 -1 -14.84 118.90 -15.60 121.40 TC -15.54 121.44 7 2 251
1949 SI WA 21:00:00 TS -15.32 120.30 293 293 P_____P__PP___ SH201949 -15.59 121.32 -1 -14.90 118.73 -15.59 121.32 TC -15.57 121.38 7 2 255
1949 SI WA 23:00:00 TS -15.34 120.21 301 294 P_____P__PO___ SH201949 -15.59 121.25 -1 -14.95 118.61 -15.59 121.25 TC -15.60 121.30 7 3 253
1949 SI WA 1949-03-20 00:00:00 TS -15.36 120.16 294 294 O_____P__OP___ jtwc_sh SH201949 -15.60 121.20 -1 -14.97 118.56 -15.60 121.20 TC -15.62 121.24 7 3 248
1949 SI WA 01:00:00 TS -15.38 120.10 995 bom 302 302 P_____O__PP___ SH201949 -15.62 121.15 -1 -15.00 118.50 995 -15.62 121.15 TC -15.64 121.18 7 4 244
1949 SI WA 03:00:00 TS -15.44 119.98 310 303 P_____P__PP___ SH201949 -15.69 121.03 -1 -15.05 118.38 -15.69 121.03 TC -15.69 121.04 7 4 245
1949 SI WA 06:00:00 TS -15.53 119.77 321 321 O_____P__OP___ jtwc_sh SH201949 -15.80 120.80 -1 -15.14 118.21 -15.80 120.80 TC -15.77 120.78 7 5 249
1949 SI WA 09:00:00 TS -15.61 119.53 342 342 P_____P__PP___ SH201949 -15.86 120.51 -1 -15.23 118.05 -15.86 120.51 TC -15.85 120.49 7 5 252
1949 SI WA 11:00:00 TS -15.66 119.36 346 346 P_____P__PO___ SH201949 -15.89 120.30 -1 -15.29 117.94 -15.89 120.30 TC -15.90 120.30 7 5 253
1949 SI WA 12:00:00 TS -15.68 119.28 356 356 O_____P__OP___ jtwc_sh SH201949 -15.90 120.20 -1 -15.33 117.88 -15.90 120.20 TC -15.92 120.21 7 5 252
1949 SI WA 15:00:00 TS -15.75 119.07 370 370 P_____P__PP___ SH201949 -15.95 119.95 -1 -15.43 117.72 -15.95 119.95 TC -15.96 119.95 7 4 251
1949 SI WA 18:00:00 TS -15.82 118.85 399 394 O_____P__OP___ jtwc_sh SH201949 -16.00 119.70 -1 -15.54 117.56 -16.00 119.70 TC -16.01 119.67 7 5 252
1949 SI WA 21:00:00 TS -15.90 118.61 414 414 P_____P__PP___ SH201949 -16.04 119.41 -1 -15.65 117.41 -16.04 119.41 TC -16.06 119.39 7 5 252
1949 SI WA 23:00:00 TS -15.95 118.45 424 424 P_____P__PO___ SH201949 -16.08 119.20 -1 -15.72 117.30 -16.08 119.20 TC -16.10 119.20 7 5 251
1949 SI WA 1949-03-21 00:00:00 TS -15.98 118.37 430 430 O_____P__OP___ jtwc_sh SH201949 -16.10 119.10 -1 -15.76 117.25 -16.10 119.10 TC -16.13 119.10 7 5 248
1949 SI WA 01:00:00 TS -16.01 118.29 980 bom 440 440 P_____O__PP___ SH201949 -16.13 119.00 -1 -15.80 117.20 980 -16.13 119.00 TC -16.16 119.01 7 5 247
1949 SI WA 03:00:00 TS -16.07 118.13 456 454 P_____P__PP___ SH201949 -16.19 118.80 -1 -15.87 117.10 -16.19 118.80 TC -16.22 118.81 7 5 246
1949 SI WA 06:00:00 TS -16.18 117.90 454 450 O_____P__OP___ jtwc_sh SH201949 -16.30 118.50 -1 -15.97 116.96 -16.30 118.50 TC -16.32 118.51 7 5 246
1949 SI WA 09:00:00 TS -16.28 117.66 450 450 P_____P__PP___ SH201949 -16.40 118.20 -1 -16.07 116.82 -16.40 118.20 TC -16.43 118.20 7 5 246
1949 SI WA 11:00:00 TS -16.35 117.50 447 447 P_____P__PO___ SH201949 -16.47 118.00 -1 -16.14 116.72 -16.47 118.00 TC -16.50 118.00 7 5 245
1949 SI WA 12:00:00 TS -16.39 117.42 451 444 O_____P__OP___ jtwc_sh SH201949 -16.50 117.90 -1 -16.18 116.68 -16.50 117.90 TC -16.53 117.90 7 5 246
1949 SI WA 15:00:00 TS -16.49 117.18 446 440 P_____P__PP___ SH201949 -16.60 117.60 -1 -16.29 116.53 -16.60 117.60 TC -16.63 117.58 7 5 245
1949 SI WA 18:00:00 TS -16.60 116.94 443 436 O_____P__OP___ jtwc_sh SH201949 -16.70 117.30 -1 -16.40 116.38 -16.70 117.30 TC -16.73 117.28 7 5 245
1949 SI WA 21:00:00 TS -16.71 116.69 436 425 P_____P__PP___ SH201949 -16.80 116.99 -1 -16.52 116.23 -16.80 116.99 TC -16.83 116.98 7 5 245
1949 SI WA 23:00:00 TS -16.78 116.53 425 425 P_____P__PO___ SH201949 -16.87 116.79 -1 -16.61 116.12 -16.87 116.79 TC -16.90 116.80 7 5 244
1949 SI WA 1949-03-22 00:00:00 TS -16.82 116.45 425 425 O_____P__OP___ jtwc_sh SH201949 -16.90 116.70 -1 -16.65 116.06 -16.90 116.70 TC -16.93 116.71 7 5 243
1949 SI WA 01:00:00 TS -16.85 116.38 970 bom 415 415 P_____O__PP___ SH201949 -16.93 116.62 -1 -16.70 116.00 970 4 -16.93 116.62 TC -16.95 116.63 7 5 242
1949 SI WA 03:00:00 TS -16.92 116.25 417 406 P_____P__PP___ SH201949 -17.00 116.49 -1 -16.79 115.87 -17.00 116.49 TC -17.01 116.48 7 4 241
1949 SI WA 06:00:00 TS -17.03 116.04 409 398 O_____P__OP___ jtwc_sh SH201949 -17.10 116.30 -1 -16.92 115.66 -17.10 116.30 TC -17.09 116.25 7 5 242
1949 SI WA 09:00:00 TS -17.14 115.81 402 391 P_____P__PP___ SH201949 -17.18 116.05 -1 -17.06 115.45 -17.18 116.05 TC -17.20 116.04 7 5 242
1949 SI WA 11:00:00 TS -17.23 115.66 394 386 P_____P__PO___ SH201949 -17.25 115.88 -1 -17.16 115.30 -17.25 115.88 TC -17.30 115.90 7 5 238
1949 SI WA 12:00:00 TS -17.28 115.58 386 372 O_____P__OP___ jtwc_sh SH201949 -17.30 115.80 -1 -17.22 115.22 -17.30 115.80 TC -17.36 115.81 7 6 230
1949 SI WA 15:00:00 TS -17.47 115.36 372 360 P_____P__PP___ SH201949 -17.53 115.60 -1 -17.38 115.00 -17.53 115.60 TC -17.55 115.55 7 6 225
1949 SI WA 18:00:00 TS -17.69 115.14 365 350 O_____P__OP___ jtwc_sh SH201949 -17.80 115.40 -1 -17.55 114.78 -17.80 115.40 TC -17.78 115.30 7 6 224
1949 SI WA 21:00:00 TS -17.91 114.90 356 343 P_____P__PP___ SH201949 -18.05 115.12 -1 -17.73 114.57 -18.05 115.12 TC -18.03 115.10 7 6 224
1949 SI WA 23:00:00 TS -18.07 114.76 343 343 P_____P__PO___ SH201949 -18.22 114.96 -1 -17.86 114.43 -18.22 114.96 TC -18.20 115.00 7 6 219
1949 SI WA 1949-03-23 00:00:00 TS -18.14 114.71 349 340 O_____P__OP___ jtwc_sh SH201949 -18.30 114.90 -1 -17.93 114.36 -18.30 114.90 TC -18.28 114.97 7 5 210
1949 SI WA 01:00:00 TS -18.22 114.67 970 bom 340 325 P_____O__PP___ SH201949 -18.38 114.87 -1 -18.00 114.30 970 -18.38 114.87 TC -18.37 114.96 7 5 200
1949 SI WA 03:00:00 TS -18.37 114.61 325 306 P_____P__PP___ SH201949 -18.54 114.85 -1 -18.14 114.18 -18.54 114.85 TC -18.54 114.95 7 5 194
1949 SI WA 06:00:00 TS -18.62 114.56 306 285 O_____P__OP___ jtwc_sh SH201949 -18.80 114.90 -1 -18.36 114.00 -18.80 114.90 TC -18.81 114.97 7 5 189
1949 SI WA 09:00:00 TS -18.89 114.53 285 267 P_____P__PP___ SH201949 -19.09 114.96 -1 -18.59 113.83 -19.09 114.96 TC -19.10 115.00 7 6 187
1949 SI WA 11:00:00 TS -19.07 114.50 267 257 P_____P__PO___ SH201949 -19.29 115.00 -1 -18.76 113.72 -19.29 115.00 TC -19.30 115.00 7 6 190
1949 SI WA 12:00:00 TS -19.17 114.48 257 237 O_____P__OP___ jtwc_sh SH201949 -19.40 115.00 -1 -18.84 113.67 -19.40 115.00 TC -19.40 114.99 7 6 196
1949 SI WA 15:00:00 TS -19.48 114.37 237 221 P_____P__PP___ SH201949 -19.75 114.92 -1 -19.10 113.52 -19.75 114.92 TC -19.73 114.92 7 7 199
1949 SI WA 18:00:00 TS -19.79 114.25 224 193 O_____P__OP___ jtwc_sh SH201949 -20.10 114.80 -1 -19.36 113.38 -20.10 114.80 TC -20.06 114.82 7 7 200
1949 SI WA 21:00:00 TS -20.09 114.14 197 175 P_____P__PP___ SH201949 -20.41 114.71 -1 -19.63 113.25 -20.41 114.71 TC -20.39 114.70 7 6 200
1949 SI WA 23:00:00 TS -20.29 114.06 175 167 P_____P__PO___ SH201949 -20.60 114.64 -1 -19.81 113.17 -20.60 114.64 TC -20.60 114.60 7 6 201
1949 SI WA 1949-03-24 00:00:00 TS -20.38 114.02 167 156 O_____P__OP___ jtwc_sh SH201949 -20.70 114.60 -1 -19.91 113.14 -20.70 114.60 TC -20.70 114.56 7 6 203
1949 SI WA 01:00:00 TS -20.48 113.97 985 bom 156 134 P_____O__PP___ SH201949 -20.80 114.55 -1 -20.00 113.10 985 -20.80 114.55 TC -20.80 114.52 7 6 206
1949 SI WA 03:00:00 TS -20.67 113.87 134 113 P_____P__PP___ SH201949 -21.01 114.42 -1 -20.18 113.02 -21.01 114.42 TC -20.99 114.42 7 6 209
1949 SI WA 06:00:00 TS -20.95 113.70 116 88 O_____P__OP___ jtwc_sh SH201949 -21.30 114.20 -1 -20.45 112.91 -21.30 114.20 TC -21.26 114.24 7 6 211
1949 SI WA 09:00:00 TS -21.22 113.52 93 83 P_____P__PP___ SH201949 -21.56 113.98 -1 -20.72 112.80 -21.56 113.98 TC -21.53 114.00 7 6 214
1949 SI WA 11:00:00 TS -21.39 113.38 83 83 P_____P__PO___ SH201949 -21.72 113.80 -1 -20.91 112.74 -21.72 113.80 TC -21.70 113.80 7 7 227
1949 SI WA 12:00:00 TS -21.44 113.26 91 91 O_____P__OP___ jtwc_sh SH201949 -21.80 113.70 -1 -21.00 112.71 -21.80 113.70 TC -21.79 113.69 7 7 234
1949 SI WA 15:00:00 TS -21.67 112.98 103 103 P_____P__PP___ SH201949 -22.05 113.33 -1 -21.29 112.64 -22.05 113.33 TC -22.04 113.29 7 7 232
1949 SI WA 18:00:00 TS -21.86 112.69 121 121 O_____P__OP___ jtwc_sh SH201949 -22.30 112.90 -1 -21.58 112.58 -22.30 112.90 TC -22.29 112.83 7 6 232
1949 SI WA 21:00:00 TS -22.02 112.49 131 121 ______P___P___ SH201949 -1 -21.89 112.53 TC -22.54 112.34 7 5 216
1949 SI WA 23:00:00 TS -22.16 112.45 121 121 ______P___O___ SH201949 -1 -22.09 112.51 TC -22.70 112.00 7 4 175
1949 SI WA 1949-03-25 00:00:00 TS -22.20 112.50 121 117 ______P_______ -1 -22.20 112.51 7 4 163
1949 SI WA 01:00:00 TS -22.30 112.49 990 bom 117 113 ______O_______ -1 -22.30 112.50 990 7 6 188
1949 SI WA 03:00:00 TS -22.51 112.46 113 113 ______P_______ -1 -22.51 112.46 7 7 188
1949 SI WA 06:00:00 TS -22.84 112.42 125 125 ______P_______ -1 -22.83 112.41 7 7 185
1949 SI WA 09:00:00 TS -23.17 112.40 136 120 ______P_______ -1 -23.16 112.38 7 7 0
1949 SI WA 12:00:00 TS -23.51 112.40 120 112 ______P_______ -1 -23.50 112.38 7 176
1949 SI WA 15:00:00 TS -23.85 112.44 112 93 ______P_______ -1 -23.84 112.40 7 172
1949 SI WA 18:00:00 TS -24.19 112.50 93 80 ______P_______ -1 -24.19 112.47 7 167
1949 SI WA 21:00:00 TS -24.54 112.61 81 74 ______P_______ -1 -24.53 112.57 7 161
1949 SI WA 1949-03-26 00:00:00 TS -24.89 112.77 80 80 ______P_______ -1 -24.88 112.73 8 158
1949 SI WA 01:00:00 TS -25.00 112.82 995 bom 81 73 ______O_______ -1 -25.00 112.80 995 7 154
1949 SI WA 03:00:00 TS -25.22 112.94 74 22 ______P_______ -1 -25.21 112.93 995 8 150
1949 SI WA 06:00:00 TS -25.58 113.19 22 10 ______P_______ -1 -25.56 113.19 995 9 147
1949 SI WA 07:00:00 TS -25.72 113.30 995 bom 10 9 ______O_______ -1 -25.70 113.30 995 11 142
1949 SI WA 09:00:00 TS -26.02 113.56 0 0 ______P_______ -1 -26.01 113.57 12 141
1949 SI WA 12:00:00 TS -26.51 114.02 0 0 ______P_______ -1 -26.52 114.03 13 140
1949 SI WA 13:00:00 NR -26.70 114.20 bom 0 ______O_______ -1 -26.70 114.20 15 140